Ceylon, Minnesota
Current Conditions -  °F | °C
As of 4:52 PM on Tuesday 27 Jan 2015 (Local Time) from KEST Reporting Station
Overcast Overcast  
Wind Chill: 28°   Ceiling: 1300
Heat Index: 36°   Visibility: 10mi
Dew Point: 33°   Wind: 13mph
Humidity: 89%   Direction: 130°SE
Pressure: 30.08"   Gusts: NA
Location:  43.53°N, 94.63°W
Report Text: KEST 272252Z AUTO 13011KT 10SM OVC013 02/01 A3008 RMK AO2 SLP200 T00220006
Loading
Personal Weather Stations






























Interactive Weather Map New forecast layout! Learn more

10-Day Weather Forecast

Advertisements
Track Severe Weather on mobile